Hotchkiss, Canada
Current Conditions -  °F | °C
As of 1:11 AM on Thursday 29 Jan 2015 (Local Time) from CYPE Reporting Station
Overcast Overcast  
Wind Chill:   Ceiling: 800
Heat Index:   Visibility: 8mi
Dew Point: -4°   Wind: 3mph
Humidity: 78%   Direction: 30°NNE
Pressure: 30.35"   Gusts: NA
Location:  57.06°N, 117.55°W
Report Text: CYPE 290811Z 03003KT 8SM FEW006 OVC008 M17/M20 A3035 RMK SC2SC6 SLP335
Loading
Personal Weather Stations






























Interactive Weather Map New forecast layout! Learn more

10-Day Weather Forecast

Advertisements
Track Severe Weather on mobile